Terminal Aerodrome Forecast
Issued by NWS

Home | Current Version | Previous Version | Text Only | Print | Product List | Glossary On
Versions: 1 2 3 4 5 6 7 8 9 10 11 12 13 14
000
FTUS41 KBTV 220520
TAFRUT
TAF
KRUT 220520Z 2206/2306 VRB03KT P6SM OVC020
     FM221200 12004KT P6SM OVC025
     FM230000 12008KT 6SM -FZDZSN BR OVC015
     FM230400 12007KT 4SM -SNRA BR OVC012
      AMD LTD TO CLD VIS AND WIND=

USA.gov is the U.S. government's official web portal to all federal, state and local government web resources and services.